sensor_id;sensor_type;location;lat;lon;timestamp;pressure;altitude;pressure_sealevel;temperature;humidity
20930;BME280;21895;47.072;15.132;2023-04-15T00:01:00;95271.00;;;8.12;78.78
20930;BME280;21895;47.072;15.132;2023-04-15T00:03:27;95272.00;;;8.13;79.05
20930;BME280;21895;47.072;15.132;2023-04-15T00:05:55;95275.00;;;8.26;78.75
20930;BME280;21895;47.072;15.132;2023-04-15T00:08:21;95268.00;;;8.20;78.28
20930;BME280;21895;47.072;15.132;2023-04-15T00:10:48;95273.00;;;8.16;78.30
20930;BME280;21895;47.072;15.132;2023-04-15T00:13:14;95262.00;;;8.20;78.14
20930;BME280;21895;47.072;15.132;2023-04-15T00:15:41;95271.00;;;8.18;78.39
20930;BME280;21895;47.072;15.132;2023-04-15T00:18:08;95265.00;;;8.18;77.85
20930;BME280;21895;47.072;15.132;2023-04-15T00:20:35;95271.00;;;8.22;77.40
20930;BME280;21895;47.072;15.132;2023-04-15T00:23:02;95262.00;;;8.13;77.61
20930;BME280;21895;47.072;15.132;2023-04-15T00:25:29;95266.00;;;8.14;77.67
20930;BME280;21895;47.072;15.132;2023-04-15T00:27:55;95261.00;;;8.05;77.68
20930;BME280;21895;47.072;15.132;2023-04-15T00:30:22;95259.00;;;8.13;77.66
20930;BME280;21895;47.072;15.132;2023-04-15T00:32:48;95268.00;;;8.15;77.96
20930;BME280;21895;47.072;15.132;2023-04-15T00:35:15;95265.00;;;8.18;77.53
20930;BME280;21895;47.072;15.132;2023-04-15T00:37:42;95266.00;;;8.31;77.25
20930;BME280;21895;47.072;15.132;2023-04-15T00:40:17;95272.00;;;8.21;77.59
20930;BME280;21895;47.072;15.132;2023-04-15T00:42:44;95268.00;;;8.08;77.99
20930;BME280;21895;47.072;15.132;2023-04-15T00:45:11;95273.00;;;7.93;78.65
20930;BME280;21895;47.072;15.132;2023-04-15T00:47:40;95272.00;;;7.86;79.35
20930;BME280;21895;47.072;15.132;2023-04-15T00:50:08;95267.00;;;7.92;79.17
20930;BME280;21895;47.072;15.132;2023-04-15T00:52:35;95267.00;;;7.92;79.03
20930;BME280;21895;47.072;15.132;2023-04-15T00:55:02;95275.00;;;7.91;78.85
20930;BME280;21895;47.072;15.132;2023-04-15T00:57:30;95266.00;;;7.87;79.12
20930;BME280;21895;47.072;15.132;2023-04-15T00:59:57;95263.00;;;7.85;79.24
20930;BME280;21895;47.072;15.132;2023-04-15T01:02:24;95264.00;;;7.77;79.33
20930;BME280;21895;47.072;15.132;2023-04-15T01:04:50;95257.00;;;7.76;79.64
20930;BME280;21895;47.072;15.132;2023-04-15T01:07:17;95262.00;;;7.79;79.60
20930;BME280;21895;47.072;15.132;2023-04-15T01:09:44;95263.00;;;7.76;79.55
20930;BME280;21895;47.072;15.132;2023-04-15T01:12:13;95262.00;;;7.69;79.54
20930;BME280;21895;47.072;15.132;2023-04-15T01:14:40;95255.00;;;7.78;79.01
20930;BME280;21895;47.072;15.132;2023-04-15T01:17:07;95257.00;;;7.66;79.78
20930;BME280;21895;47.072;15.132;2023-04-15T01:19:36;95260.00;;;7.66;79.52
20930;BME280;21895;47.072;15.132;2023-04-15T01:22:03;95265.00;;;7.61;79.66
20930;BME280;21895;47.072;15.132;2023-04-15T01:24:31;95265.00;;;7.56;80.14
20930;BME280;21895;47.072;15.132;2023-04-15T01:27:00;95264.00;;;7.60;79.95
20930;BME280;21895;47.072;15.132;2023-04-15T01:29:27;95263.00;;;7.58;79.85
20930;BME280;21895;47.072;15.132;2023-04-15T01:31:55;95265.00;;;7.52;80.21
20930;BME280;21895;47.072;15.132;2023-04-15T01:34:22;95269.00;;;7.57;80.32
20930;BME280;21895;47.072;15.132;2023-04-15T01:36:48;95267.00;;;7.49;79.78
20930;BME280;21895;47.072;15.132;2023-04-15T01:39:15;95275.00;;;7.60;79.46
20930;BME280;21895;47.072;15.132;2023-04-15T01:41:41;95268.00;;;7.53;79.40
20930;BME280;21895;47.072;15.132;2023-04-15T01:44:08;95279.00;;;7.50;80.08
20930;BME280;21895;47.072;15.132;2023-04-15T01:46:36;95271.00;;;7.46;80.41
20930;BME280;21895;47.072;15.132;2023-04-15T01:49:03;95276.00;;;7.46;80.49
20930;BME280;21895;47.072;15.132;2023-04-15T01:51:29;95278.00;;;7.49;80.32
20930;BME280;21895;47.072;15.132;2023-04-15T01:53:56;95272.00;;;7.50;79.49
20930;BME280;21895;47.072;15.132;2023-04-15T01:56:22;95271.00;;;7.56;79.18
20930;BME280;21895;47.072;15.132;2023-04-15T01:58:49;95268.00;;;7.46;79.53
20930;BME280;21895;47.072;15.132;2023-04-15T02:01:16;95277.00;;;7.40;80.31
20930;BME280;21895;47.072;15.132;2023-04-15T02:03:45;95268.00;;;7.46;79.98
20930;BME280;21895;47.072;15.132;2023-04-15T02:06:12;95270.00;;;7.40;80.61
20930;BME280;21895;47.072;15.132;2023-04-15T02:08:38;95271.00;;;7.38;80.44
20930;BME280;21895;47.072;15.132;2023-04-15T02:11:05;95279.00;;;7.39;80.55
20930;BME280;21895;47.072;15.132;2023-04-15T02:13:31;95275.00;;;7.44;80.03
20930;BME280;21895;47.072;15.132;2023-04-15T02:15:58;95277.00;;;7.38;79.46
20930;BME280;21895;47.072;15.132;2023-04-15T02:18:24;95270.00;;;7.32;79.92
20930;BME280;21895;47.072;15.132;2023-04-15T02:20:52;95275.00;;;7.32;79.91
20930;BME280;21895;47.072;15.132;2023-04-15T02:23:18;95270.00;;;7.28;80.30
20930;BME280;21895;47.072;15.132;2023-04-15T02:25:45;95271.00;;;7.34;80.20
20930;BME280;21895;47.072;15.132;2023-04-15T02:28:20;95274.00;;;7.39;79.77
20930;BME280;21895;47.072;15.132;2023-04-15T02:30:48;95272.00;;;7.41;79.62
20930;BME280;21895;47.072;15.132;2023-04-15T02:33:17;95272.00;;;7.40;79.39
20930;BME280;21895;47.072;15.132;2023-04-15T02:35:44;95285.00;;;7.35;79.66
20930;BME280;21895;47.072;15.132;2023-04-15T02:38:11;95270.00;;;7.42;79.40
20930;BME280;21895;47.072;15.132;2023-04-15T02:40:37;95275.00;;;7.34;79.76
20930;BME280;21895;47.072;15.132;2023-04-15T02:43:04;95275.00;;;7.40;79.61
20930;BME280;21895;47.072;15.132;2023-04-15T02:45:32;95276.00;;;7.48;79.21
20930;BME280;21895;47.072;15.132;2023-04-15T02:47:59;95279.00;;;7.41;79.43
20930;BME280;21895;47.072;15.132;2023-04-15T02:50:29;95281.00;;;7.41;79.40
20930;BME280;21895;47.072;15.132;2023-04-15T02:52:56;95278.00;;;7.42;79.43
20930;BME280;21895;47.072;15.132;2023-04-15T02:55:23;95288.00;;;7.41;79.45
20930;BME280;21895;47.072;15.132;2023-04-15T02:57:49;95273.00;;;7.42;79.69
20930;BME280;21895;47.072;15.132;2023-04-15T03:00:16;95274.00;;;7.36;79.88
20930;BME280;21895;47.072;15.132;2023-04-15T03:02:45;95277.00;;;7.33;79.75
20930;BME280;21895;47.072;15.132;2023-04-15T03:05:13;95280.00;;;7.22;79.75
20930;BME280;21895;47.072;15.132;2023-04-15T03:07:39;95277.00;;;7.30;79.32
20930;BME280;21895;47.072;15.132;2023-04-15T03:10:07;95279.00;;;7.23;79.62
20930;BME280;21895;47.072;15.132;2023-04-15T03:12:34;95277.00;;;7.18;80.07
20930;BME280;21895;47.072;15.132;2023-04-15T03:15:00;95279.00;;;7.18;80.36
20930;BME280;21895;47.072;15.132;2023-04-15T03:17:27;95277.00;;;7.21;80.49
20930;BME280;21895;47.072;15.132;2023-04-15T03:19:53;95281.00;;;7.21;80.73
20930;BME280;21895;47.072;15.132;2023-04-15T03:22:20;95276.00;;;7.25;80.52
20930;BME280;21895;47.072;15.132;2023-04-15T03:24:47;95279.00;;;7.30;80.25
20930;BME280;21895;47.072;15.132;2023-04-15T03:27:15;95282.00;;;7.45;79.52
20930;BME280;21895;47.072;15.132;2023-04-15T03:29:42;95283.00;;;7.32;79.70
20930;BME280;21895;47.072;15.132;2023-04-15T03:32:08;95286.00;;;7.31;79.72
20930;BME280;21895;47.072;15.132;2023-04-15T03:34:35;95295.00;;;7.33;79.97
20930;BME280;21895;47.072;15.132;2023-04-15T03:37:01;95289.00;;;7.41;79.60
20930;BME280;21895;47.072;15.132;2023-04-15T03:39:28;95288.00;;;7.37;79.94
20930;BME280;21895;47.072;15.132;2023-04-15T03:41:54;95293.00;;;7.32;79.96
20930;BME280;21895;47.072;15.132;2023-04-15T03:44:21;95297.00;;;7.32;79.78
20930;BME280;21895;47.072;15.132;2023-04-15T03:46:48;95291.00;;;7.32;79.89
20930;BME280;21895;47.072;15.132;2023-04-15T03:49:14;95295.00;;;7.26;80.35
20930;BME280;21895;47.072;15.132;2023-04-15T03:51:41;95295.00;;;7.36;80.14
20930;BME280;21895;47.072;15.132;2023-04-15T03:54:07;95297.00;;;7.34;79.89
20930;BME280;21895;47.072;15.132;2023-04-15T03:56:34;95294.00;;;7.39;79.97
20930;BME280;21895;47.072;15.132;2023-04-15T03:59:01;95295.00;;;7.49;79.35
20930;BME280;21895;47.072;15.132;2023-04-15T04:01:28;95297.00;;;7.40;79.04
20930;BME280;21895;47.072;15.132;2023-04-15T04:03:54;95296.00;;;7.35;79.23
20930;BME280;21895;47.072;15.132;2023-04-15T04:06:21;95301.00;;;7.33;79.51
20930;BME280;21895;47.072;15.132;2023-04-15T04:08:47;95305.00;;;7.32;79.45
20930;BME280;21895;47.072;15.132;2023-04-15T04:11:14;95296.00;;;7.26;79.27
20930;BME280;21895;47.072;15.132;2023-04-15T04:13:41;95299.00;;;7.25;79.28
20930;BME280;21895;47.072;15.132;2023-04-15T04:16:07;95302.00;;;7.27;79.60
20930;BME280;21895;47.072;15.132;2023-04-15T04:18:34;95309.00;;;7.30;79.57
20930;BME280;21895;47.072;15.132;2023-04-15T04:21:01;95310.00;;;7.27;79.97
20930;BME280;21895;47.072;15.132;2023-04-15T04:23:27;95311.00;;;7.30;79.64
20930;BME280;21895;47.072;15.132;2023-04-15T04:25:54;95317.00;;;7.32;79.56
20930;BME280;21895;47.072;15.132;2023-04-15T04:28:20;95309.00;;;7.26;79.81
20930;BME280;21895;47.072;15.132;2023-04-15T04:30:47;95309.00;;;7.14;80.47
20930;BME280;21895;47.072;15.132;2023-04-15T04:33:13;95312.00;;;7.20;80.44
20930;BME280;21895;47.072;15.132;2023-04-15T04:35:40;95322.00;;;7.23;80.72
20930;BME280;21895;47.072;15.132;2023-04-15T04:38:06;95328.00;;;7.27;80.54
20930;BME280;21895;47.072;15.132;2023-04-15T04:40:33;95323.00;;;7.37;80.41
20930;BME280;21895;47.072;15.132;2023-04-15T04:43:00;95328.00;;;7.40;80.24
20930;BME280;21895;47.072;15.132;2023-04-15T04:45:26;95333.00;;;7.38;80.19
20930;BME280;21895;47.072;15.132;2023-04-15T04:47:53;95338.00;;;7.33;80.61
20930;BME280;21895;47.072;15.132;2023-04-15T04:50:19;95337.00;;;7.41;80.45
20930;BME280;21895;47.072;15.132;2023-04-15T04:52:46;95344.00;;;7.47;79.78
20930;BME280;21895;47.072;15.132;2023-04-15T04:55:12;95336.00;;;7.45;79.67
20930;BME280;21895;47.072;15.132;2023-04-15T04:57:39;95347.00;;;7.42;80.01
20930;BME280;21895;47.072;15.132;2023-04-15T05:00:07;95343.00;;;7.41;80.33
20930;BME280;21895;47.072;15.132;2023-04-15T05:02:34;95345.00;;;7.41;80.30
20930;BME280;21895;47.072;15.132;2023-04-15T05:05:01;95344.00;;;7.37;80.33
20930;BME280;21895;47.072;15.132;2023-04-15T05:07:27;95349.00;;;7.49;80.14
20930;BME280;21895;47.072;15.132;2023-04-15T05:09:54;95358.00;;;7.47;79.96
20930;BME280;21895;47.072;15.132;2023-04-15T05:12:21;95362.00;;;7.48;79.70
20930;BME280;21895;47.072;15.132;2023-04-15T05:14:47;95366.00;;;7.54;79.94
20930;BME280;21895;47.072;15.132;2023-04-15T05:17:14;95362.00;;;7.51;79.76
20930;BME280;21895;47.072;15.132;2023-04-15T05:19:40;95362.00;;;7.51;79.79
20930;BME280;21895;47.072;15.132;2023-04-15T05:22:07;95368.00;;;7.59;79.76
20930;BME280;21895;47.072;15.132;2023-04-15T05:24:33;95372.00;;;7.70;79.63
20930;BME280;21895;47.072;15.132;2023-04-15T05:27:00;95369.00;;;7.71;79.44
20930;BME280;21895;47.072;15.132;2023-04-15T05:29:27;95369.00;;;7.73;79.62
20930;BME280;21895;47.072;15.132;2023-04-15T05:31:53;95373.00;;;7.82;78.69
20930;BME280;21895;47.072;15.132;2023-04-15T05:34:20;95381.00;;;7.72;79.01
20930;BME280;21895;47.072;15.132;2023-04-15T05:36:47;95385.00;;;7.75;79.23
20930;BME280;21895;47.072;15.132;2023-04-15T05:39:14;95384.00;;;8.03;78.15
20930;BME280;21895;47.072;15.132;2023-04-15T05:41:40;95388.00;;;7.92;78.30
20930;BME280;21895;47.072;15.132;2023-04-15T05:44:07;95396.00;;;7.99;78.25
20930;BME280;21895;47.072;15.132;2023-04-15T05:46:33;95394.00;;;8.05;78.08
20930;BME280;21895;47.072;15.132;2023-04-15T05:49:00;95397.00;;;8.16;77.50
20930;BME280;21895;47.072;15.132;2023-04-15T05:51:27;95398.00;;;8.30;77.11
20930;BME280;21895;47.072;15.132;2023-04-15T05:53:53;95403.00;;;8.31;76.80
20930;BME280;21895;47.072;15.132;2023-04-15T05:56:20;95403.00;;;8.35;76.81
20930;BME280;21895;47.072;15.132;2023-04-15T05:58:47;95405.00;;;8.50;76.37
20930;BME280;21895;47.072;15.132;2023-04-15T06:01:13;95412.00;;;8.56;76.00
20930;BME280;21895;47.072;15.132;2023-04-15T06:03:40;95415.00;;;8.58;75.67
20930;BME280;21895;47.072;15.132;2023-04-15T06:06:07;95418.00;;;8.65;75.63
20930;BME280;21895;47.072;15.132;2023-04-15T06:08:34;95420.00;;;8.63;75.57
20930;BME280;21895;47.072;15.132;2023-04-15T06:11:01;95415.00;;;8.50;76.21
20930;BME280;21895;47.072;15.132;2023-04-15T06:13:28;95411.00;;;8.67;75.67
20930;BME280;21895;47.072;15.132;2023-04-15T06:15:55;95415.00;;;8.70;75.58
20930;BME280;21895;47.072;15.132;2023-04-15T06:18:21;95425.00;;;8.79;75.94
20930;BME280;21895;47.072;15.132;2023-04-15T06:20:48;95431.00;;;8.88;74.94
20930;BME280;21895;47.072;15.132;2023-04-15T06:23:14;95431.00;;;8.92;74.64
20930;BME280;21895;47.072;15.132;2023-04-15T06:25:41;95431.00;;;8.92;74.52
20930;BME280;21895;47.072;15.132;2023-04-15T06:28:07;95437.00;;;8.97;74.84
20930;BME280;21895;47.072;15.132;2023-04-15T06:30:34;95433.00;;;9.03;74.95
20930;BME280;21895;47.072;15.132;2023-04-15T06:33:01;95433.00;;;9.13;73.98
20930;BME280;21895;47.072;15.132;2023-04-15T06:35:30;95438.00;;;9.08;74.21
20930;BME280;21895;47.072;15.132;2023-04-15T06:37:57;95439.00;;;8.98;74.32
20930;BME280;21895;47.072;15.132;2023-04-15T06:40:23;95448.00;;;8.97;74.41
20930;BME280;21895;47.072;15.132;2023-04-15T06:42:50;95458.00;;;9.00;74.47
20930;BME280;21895;47.072;15.132;2023-04-15T06:45:16;95459.00;;;8.96;74.01
20930;BME280;21895;47.072;15.132;2023-04-15T06:47:43;95459.00;;;8.99;73.83
20930;BME280;21895;47.072;15.132;2023-04-15T06:50:09;95460.00;;;9.00;73.72
20930;BME280;21895;47.072;15.132;2023-04-15T06:52:36;95463.00;;;8.92;73.84
20930;BME280;21895;47.072;15.132;2023-04-15T06:55:03;95463.00;;;8.89;74.15
20930;BME280;21895;47.072;15.132;2023-04-15T06:57:30;95468.00;;;8.80;74.72
20930;BME280;21895;47.072;15.132;2023-04-15T06:59:59;95473.00;;;8.73;74.99
20930;BME280;21895;47.072;15.132;2023-04-15T07:02:26;95467.00;;;8.77;75.46
20930;BME280;21895;47.072;15.132;2023-04-15T07:04:52;95470.00;;;8.90;75.07
20930;BME280;21895;47.072;15.132;2023-04-15T07:07:19;95468.00;;;8.93;75.06
20930;BME280;21895;47.072;15.132;2023-04-15T07:09:46;95469.00;;;9.00;74.59
20930;BME280;21895;47.072;15.132;2023-04-15T07:12:13;95474.00;;;9.12;74.37
20930;BME280;21895;47.072;15.132;2023-04-15T07:14:39;95478.00;;;9.18;74.46
20930;BME280;21895;47.072;15.132;2023-04-15T07:17:05;95479.00;;;9.22;73.26
20930;BME280;21895;47.072;15.132;2023-04-15T07:19:33;95480.00;;;9.38;72.65
20930;BME280;21895;47.072;15.132;2023-04-15T07:22:00;95471.00;;;9.41;72.55
20930;BME280;21895;47.072;15.132;2023-04-15T07:24:26;95483.00;;;9.42;72.74
20930;BME280;21895;47.072;15.132;2023-04-15T07:26:54;95485.00;;;9.43;72.48
20930;BME280;21895;47.072;15.132;2023-04-15T07:29:26;95490.00;;;9.56;71.99
20930;BME280;21895;47.072;15.132;2023-04-15T07:31:53;95488.00;;;9.58;72.00
20930;BME280;21895;47.072;15.132;2023-04-15T07:34:19;95491.00;;;9.58;71.77
20930;BME280;21895;47.072;15.132;2023-04-15T07:36:46;95488.00;;;9.68;71.94
20930;BME280;21895;47.072;15.132;2023-04-15T07:39:16;95488.00;;;9.77;71.82
20930;BME280;21895;47.072;15.132;2023-04-15T07:41:42;95495.00;;;9.88;71.11
20930;BME280;21895;47.072;15.132;2023-04-15T07:44:09;95498.00;;;9.93;70.27
20930;BME280;21895;47.072;15.132;2023-04-15T07:46:36;95488.00;;;10.04;70.37
20930;BME280;21895;47.072;15.132;2023-04-15T07:49:03;95490.00;;;10.22;70.37
20930;BME280;21895;47.072;15.132;2023-04-15T07:51:30;95498.00;;;10.39;69.55
20930;BME280;21895;47.072;15.132;2023-04-15T07:53:57;95498.00;;;10.61;68.31
20930;BME280;21895;47.072;15.132;2023-04-15T07:56:24;95501.00;;;10.50;68.81
20930;BME280;21895;47.072;15.132;2023-04-15T07:58:51;95498.00;;;10.65;68.97
20930;BME280;21895;47.072;15.132;2023-04-15T08:01:18;95501.00;;;10.87;68.32
20930;BME280;21895;47.072;15.132;2023-04-15T08:03:44;95502.00;;;11.24;67.54
20930;BME280;21895;47.072;15.132;2023-04-15T08:06:11;95502.00;;;11.48;66.82
20930;BME280;21895;47.072;15.132;2023-04-15T08:08:38;95501.00;;;11.68;66.38
20930;BME280;21895;47.072;15.132;2023-04-15T08:11:04;95505.00;;;11.96;65.44
20930;BME280;21895;47.072;15.132;2023-04-15T08:13:31;95503.00;;;11.97;65.56
20930;BME280;21895;47.072;15.132;2023-04-15T08:18:18;95518.00;;;12.03;66.30
20930;BME280;21895;47.072;15.132;2023-04-15T08:20:45;95513.00;;;12.18;64.79
20930;BME280;21895;47.072;15.132;2023-04-15T08:23:11;95525.00;;;12.51;64.20
20930;BME280;21895;47.072;15.132;2023-04-15T08:25:39;95518.00;;;12.52;63.31
20930;BME280;21895;47.072;15.132;2023-04-15T08:28:06;95523.00;;;12.53;63.07
20930;BME280;21895;47.072;15.132;2023-04-15T08:30:33;95528.00;;;12.59;63.14
20930;BME280;21895;47.072;15.132;2023-04-15T08:33:00;95520.00;;;12.82;62.35
20930;BME280;21895;47.072;15.132;2023-04-15T08:35:27;95527.00;;;12.83;61.47
20930;BME280;21895;47.072;15.132;2023-04-15T08:37:53;95521.00;;;12.80;62.20
20930;BME280;21895;47.072;15.132;2023-04-15T08:40:25;95530.00;;;12.85;61.83
20930;BME280;21895;47.072;15.132;2023-04-15T08:43:01;95525.00;;;12.77;60.64
20930;BME280;21895;47.072;15.132;2023-04-15T08:45:29;95534.00;;;12.61;62.06
20930;BME280;21895;47.072;15.132;2023-04-15T08:47:57;95530.00;;;12.89;61.60
20930;BME280;21895;47.072;15.132;2023-04-15T08:50:25;95523.00;;;12.69;60.57
20930;BME280;21895;47.072;15.132;2023-04-15T08:52:55;95530.00;;;12.60;61.56
20930;BME280;21895;47.072;15.132;2023-04-15T08:55:29;95531.00;;;12.69;61.60
20930;BME280;21895;47.072;15.132;2023-04-15T08:58:00;95535.00;;;12.63;62.15
20930;BME280;21895;47.072;15.132;2023-04-15T09:00:31;95542.00;;;12.82;61.73
20930;BME280;21895;47.072;15.132;2023-04-15T09:02:59;95533.00;;;12.96;60.11
20930;BME280;21895;47.072;15.132;2023-04-15T09:05:26;95538.00;;;12.89;60.28
20930;BME280;21895;47.072;15.132;2023-04-15T09:07:52;95536.00;;;12.88;61.52
20930;BME280;21895;47.072;15.132;2023-04-15T09:10:19;95545.00;;;13.12;60.58
20930;BME280;21895;47.072;15.132;2023-04-15T09:12:46;95541.00;;;13.03;59.65
20930;BME280;21895;47.072;15.132;2023-04-15T09:15:12;95532.00;;;13.28;59.80
20930;BME280;21895;47.072;15.132;2023-04-15T09:17:43;95538.00;;;13.36;59.58
20930;BME280;21895;47.072;15.132;2023-04-15T09:20:12;95535.00;;;13.50;58.26
20930;BME280;21895;47.072;15.132;2023-04-15T09:22:41;95536.00;;;13.61;57.55
20930;BME280;21895;47.072;15.132;2023-04-15T09:25:41;95536.00;;;13.48;58.41
20930;BME280;21895;47.072;15.132;2023-04-15T09:28:08;95537.00;;;13.58;58.89
20930;BME280;21895;47.072;15.132;2023-04-15T09:30:36;95542.00;;;13.65;57.97
20930;BME280;21895;47.072;15.132;2023-04-15T09:33:03;95541.00;;;13.81;57.40
20930;BME280;21895;47.072;15.132;2023-04-15T09:35:33;95542.00;;;13.99;56.94
20930;BME280;21895;47.072;15.132;2023-04-15T09:38:08;95541.00;;;13.91;57.00
20930;BME280;21895;47.072;15.132;2023-04-15T09:40:44;95539.00;;;14.02;56.19
20930;BME280;21895;47.072;15.132;2023-04-15T09:43:10;95541.00;;;13.98;56.96
20930;BME280;21895;47.072;15.132;2023-04-15T09:45:48;95538.00;;;14.01;57.88
20930;BME280;21895;47.072;15.132;2023-04-15T09:48:23;95544.00;;;14.08;57.78
20930;BME280;21895;47.072;15.132;2023-04-15T09:50:57;95538.00;;;14.06;57.46
20930;BME280;21895;47.072;15.132;2023-04-15T09:53:25;95552.00;;;13.89;57.68
20930;BME280;21895;47.072;15.132;2023-04-15T09:55:55;95553.00;;;13.59;58.06
20930;BME280;21895;47.072;15.132;2023-04-15T09:58:27;95548.00;;;13.53;59.22
20930;BME280;21895;47.072;15.132;2023-04-15T10:00:56;95549.00;;;13.57;58.52
20930;BME280;21895;47.072;15.132;2023-04-15T10:03:26;95549.00;;;13.66;59.16
20930;BME280;21895;47.072;15.132;2023-04-15T10:05:56;95543.00;;;13.55;58.39
20930;BME280;21895;47.072;15.132;2023-04-15T10:08:26;95542.00;;;13.30;59.39
20930;BME280;21895;47.072;15.132;2023-04-15T10:10:53;95553.00;;;13.29;58.83
20930;BME280;21895;47.072;15.132;2023-04-15T10:13:23;95556.00;;;13.36;59.25
20930;BME280;21895;47.072;15.132;2023-04-15T10:18:43;95551.00;;;13.53;57.68
20930;BME280;21895;47.072;15.132;2023-04-15T10:21:13;95555.00;;;13.80;56.90
20930;BME280;21895;47.072;15.132;2023-04-15T10:23:47;95554.00;;;13.67;57.63
20930;BME280;21895;47.072;15.132;2023-04-15T10:26:15;95561.00;;;13.91;56.87
20930;BME280;21895;47.072;15.132;2023-04-15T10:28:43;95557.00;;;14.15;56.84
20930;BME280;21895;47.072;15.132;2023-04-15T10:31:14;95560.00;;;14.13;56.93
20930;BME280;21895;47.072;15.132;2023-04-15T10:33:43;95548.00;;;14.35;56.36
20930;BME280;21895;47.072;15.132;2023-04-15T10:36:11;95560.00;;;14.54;55.51
20930;BME280;21895;47.072;15.132;2023-04-15T10:38:43;95555.00;;;14.41;55.94
20930;BME280;21895;47.072;15.132;2023-04-15T10:41:23;95556.00;;;14.55;55.21
20930;BME280;21895;47.072;15.132;2023-04-15T10:44:07;95560.00;;;14.41;53.52
20930;BME280;21895;47.072;15.132;2023-04-15T10:46:45;95564.00;;;14.62;52.68
20930;BME280;21895;47.072;15.132;2023-04-15T10:49:23;95561.00;;;14.62;53.07
20930;BME280;21895;47.072;15.132;2023-04-15T10:51:53;95551.00;;;14.87;51.41
20930;BME280;21895;47.072;15.132;2023-04-15T10:54:40;95558.00;;;15.04;50.51
20930;BME280;21895;47.072;15.132;2023-04-15T10:58:44;95561.00;;;15.10;51.49
20930;BME280;21895;47.072;15.132;2023-04-15T11:01:12;95564.00;;;14.53;51.47
20930;BME280;21895;47.072;15.132;2023-04-15T11:03:42;95564.00;;;14.49;52.68
20930;BME280;21895;47.072;15.132;2023-04-15T11:06:12;95562.00;;;14.52;50.05
20930;BME280;21895;47.072;15.132;2023-04-15T11:08:58;95562.00;;;14.59;49.11
20930;BME280;21895;47.072;15.132;2023-04-15T11:12:05;95562.00;;;13.75;50.75
20930;BME280;21895;47.072;15.132;2023-04-15T11:14:40;95574.00;;;13.82;50.61
20930;BME280;21895;47.072;15.132;2023-04-15T11:17:08;95567.00;;;14.08;49.28
20930;BME280;21895;47.072;15.132;2023-04-15T11:19:36;95569.00;;;13.85;50.13
20930;BME280;21895;47.072;15.132;2023-04-15T11:22:10;95562.00;;;13.72;50.22
20930;BME280;21895;47.072;15.132;2023-04-15T11:24:46;95568.00;;;13.68;50.13
20930;BME280;21895;47.072;15.132;2023-04-15T11:27:22;95569.00;;;13.85;49.12
20930;BME280;21895;47.072;15.132;2023-04-15T11:29:49;95570.00;;;13.93;47.85
20930;BME280;21895;47.072;15.132;2023-04-15T11:32:15;95558.00;;;13.88;48.73
20930;BME280;21895;47.072;15.132;2023-04-15T11:34:45;95572.00;;;14.04;49.71
20930;BME280;21895;47.072;15.132;2023-04-15T11:37:11;95566.00;;;14.07;49.27
20930;BME280;21895;47.072;15.132;2023-04-15T11:39:38;95568.00;;;14.19;48.93
20930;BME280;21895;47.072;15.132;2023-04-15T11:42:16;95572.00;;;14.26;48.58
20930;BME280;21895;47.072;15.132;2023-04-15T11:44:43;95571.00;;;14.65;47.80
20930;BME280;21895;47.072;15.132;2023-04-15T11:47:23;95567.00;;;15.07;47.35
20930;BME280;21895;47.072;15.132;2023-04-15T11:49:50;95571.00;;;15.39;46.57
20930;BME280;21895;47.072;15.132;2023-04-15T11:52:16;95571.00;;;14.98;46.97
20930;BME280;21895;47.072;15.132;2023-04-15T11:54:43;95575.00;;;14.40;47.85
20930;BME280;21895;47.072;15.132;2023-04-15T11:57:10;95575.00;;;14.33;48.92
20930;BME280;21895;47.072;15.132;2023-04-15T11:59:43;95576.00;;;14.45;47.55
20930;BME280;21895;47.072;15.132;2023-04-15T12:02:12;95570.00;;;14.47;48.66
20930;BME280;21895;47.072;15.132;2023-04-15T12:04:39;95571.00;;;14.74;47.23
20930;BME280;21895;47.072;15.132;2023-04-15T12:07:06;95575.00;;;14.78;47.97
20930;BME280;21895;47.072;15.132;2023-04-15T12:09:37;95574.00;;;14.99;47.00
20930;BME280;21895;47.072;15.132;2023-04-15T12:12:05;95582.00;;;15.13;46.50
20930;BME280;21895;47.072;15.132;2023-04-15T12:14:32;95590.00;;;15.15;46.40
20930;BME280;21895;47.072;15.132;2023-04-15T12:17:04;95579.00;;;15.01;46.67
20930;BME280;21895;47.072;15.132;2023-04-15T12:19:40;95577.00;;;14.53;46.81
20930;BME280;21895;47.072;15.132;2023-04-15T12:22:12;95572.00;;;14.23;47.21
20930;BME280;21895;47.072;15.132;2023-04-15T12:24:43;95588.00;;;13.94;47.87
20930;BME280;21895;47.072;15.132;2023-04-15T12:27:15;95585.00;;;13.92;48.88
20930;BME280;21895;47.072;15.132;2023-04-15T12:29:42;95588.00;;;13.84;48.68
20930;BME280;21895;47.072;15.132;2023-04-15T12:32:14;95592.00;;;14.07;47.88
20930;BME280;21895;47.072;15.132;2023-04-15T12:34:48;95599.00;;;13.96;48.88
20930;BME280;21895;47.072;15.132;2023-04-15T12:37:15;95599.00;;;13.84;47.38
20930;BME280;21895;47.072;15.132;2023-04-15T12:39:46;95582.00;;;13.80;48.49
20930;BME280;21895;47.072;15.132;2023-04-15T12:42:15;95605.00;;;13.57;48.14
20930;BME280;21895;47.072;15.132;2023-04-15T12:44:42;95598.00;;;13.46;49.18
20930;BME280;21895;47.072;15.132;2023-04-15T12:47:10;95594.00;;;13.48;48.96
20930;BME280;21895;47.072;15.132;2023-04-15T12:49:37;95601.00;;;13.13;49.78
20930;BME280;21895;47.072;15.132;2023-04-15T12:52:04;95610.00;;;13.33;50.35
20930;BME280;21895;47.072;15.132;2023-04-15T12:54:31;95614.00;;;13.62;48.13
20930;BME280;21895;47.072;15.132;2023-04-15T12:56:59;95614.00;;;13.35;50.19
20930;BME280;21895;47.072;15.132;2023-04-15T12:59:26;95603.00;;;13.54;48.90
20930;BME280;21895;47.072;15.132;2023-04-15T13:01:52;95620.00;;;13.70;49.02
20930;BME280;21895;47.072;15.132;2023-04-15T13:04:20;95620.00;;;13.73;49.77
20930;BME280;21895;47.072;15.132;2023-04-15T13:06:47;95618.00;;;14.06;49.53